createdAt,value
2018-08-24T00:12:30.263Z,85.40
2018-08-24T00:17:36.721Z,85.80
2018-08-24T00:28:31.127Z,85.90
2018-08-24T00:33:55.771Z,86.00
2018-08-24T00:39:01.050Z,86.60
2018-08-24T01:11:51.131Z,88.20
2018-08-24T01:16:59.802Z,88.80
2018-08-24T01:22:02.893Z,89.00
2018-08-24T01:27:17.606Z,89.10
2018-08-24T01:32:20.734Z,89.30
2018-08-24T01:37:23.790Z,89.20
2018-08-24T01:42:26.813Z,88.80
2018-08-24T01:47:29.854Z,89.10
2018-08-24T01:52:32.911Z,88.80
2018-08-24T01:57:35.967Z,88.70
2018-08-24T02:02:39.075Z,88.60
2018-08-24T02:07:42.105Z,89.20
2018-08-24T02:12:50.497Z,90.30
2018-08-24T02:17:58.935Z,90.00
2018-08-24T02:23:09.022Z,90.30
2018-08-24T02:28:12.094Z,91.00
2018-08-24T02:33:15.173Z,91.50
2018-08-24T02:38:18.259Z,90.90
2018-08-24T02:43:21.370Z,90.60
2018-08-24T02:48:24.502Z,90.90
2018-08-24T02:53:27.650Z,90.80
2018-08-24T02:58:30.721Z,90.60
2018-08-24T03:03:33.792Z,90.70
2018-08-24T03:08:36.907Z,90.70
2018-08-24T03:13:40.039Z,91.10
2018-08-24T03:18:43.171Z,91.80
2018-08-24T03:23:46.399Z,92.80
2018-08-24T03:28:49.474Z,92.40
2018-08-24T03:33:52.561Z,92.80
2018-08-24T03:38:55.697Z,92.50
2018-08-24T03:43:58.924Z,92.90
2018-08-24T03:49:02.059Z,92.80
2018-08-24T03:54:10.764Z,93.30
2018-08-24T03:59:13.873Z,93.10
2018-08-24T04:04:17.104Z,93.50
2018-08-24T04:09:20.219Z,94.30
2018-08-24T04:14:23.340Z,93.90
2018-08-24T04:19:27.464Z,94.80
2018-08-24T04:24:30.494Z,94.60
2018-08-24T04:29:33.660Z,94.80
2018-08-24T04:34:36.760Z,95.70
2018-08-24T04:39:41.651Z,95.80
2018-08-24T04:44:44.807Z,96.30
2018-08-24T04:49:48.147Z,96.60
2018-08-24T04:54:56.913Z,97.60
2018-08-24T05:00:00.198Z,98.90
2018-08-24T05:05:13.364Z,99.50
2018-08-24T05:10:17.192Z,99.00
2018-08-24T05:15:30.072Z,98.50
2018-08-24T05:20:42.930Z,99.50
2018-08-24T05:25:50.660Z,98.80
2018-08-24T05:30:53.900Z,98.80
2018-08-24T05:36:01.588Z,99.50
2018-08-24T05:41:04.936Z,99.80
2018-08-24T05:46:08.043Z,98.70
2018-08-24T05:51:11.623Z,98.70
2018-08-24T05:56:14.848Z,97.70
2018-08-24T06:01:18.012Z,97.50
2018-08-24T06:06:21.234Z,98.20
2018-08-24T06:11:24.451Z,98.60
2018-08-24T06:16:27.543Z,98.50
2018-08-24T06:21:30.700Z,98.80
2018-08-24T06:26:33.883Z,98.70
2018-08-24T06:31:37.075Z,98.00
2018-08-24T06:36:40.388Z,97.60
2018-08-24T06:41:44.235Z,97.10
2018-08-24T06:46:47.246Z,97.20
2018-08-24T06:51:50.355Z,96.90
2018-08-24T06:57:05.729Z,97.30
2018-08-24T07:02:08.811Z,97.30
2018-08-24T07:07:11.930Z,96.90
2018-08-24T07:12:15.075Z,96.60
2018-08-24T07:17:23.501Z,97.50
2018-08-24T07:22:26.612Z,96.10
2018-08-24T07:27:29.738Z,96.10
2018-08-24T07:32:32.803Z,95.10
2018-08-24T07:37:35.879Z,95.50
2018-08-24T07:42:38.980Z,94.80
2018-08-24T07:47:42.103Z,94.60
2018-08-24T07:52:45.224Z,94.40
2018-08-24T07:57:48.361Z,95.00
2018-08-24T08:02:51.381Z,94.70
2018-08-24T08:07:54.397Z,94.10
2018-08-24T08:12:57.526Z,95.20
2018-08-24T08:18:00.569Z,93.80
2018-08-24T08:23:03.691Z,94.20
2018-08-24T08:28:06.727Z,93.40
2018-08-24T08:33:10.140Z,93.50
2018-08-24T08:38:13.192Z,93.10
2018-08-24T08:43:16.380Z,92.80
2018-08-24T08:48:19.407Z,92.00
2018-08-24T08:53:22.437Z,91.40
2018-08-24T08:58:30.966Z,91.00
2018-08-24T09:03:33.978Z,91.40
2018-08-24T09:08:36.989Z,90.60
2018-08-24T09:13:39.989Z,89.80
2018-08-24T09:18:48.514Z,90.10
2018-08-24T09:23:57.035Z,87.90
2018-08-24T09:29:04.614Z,88.60
2018-08-24T09:34:07.629Z,86.10
2018-08-24T09:39:10.714Z,85.80
2018-08-24T09:44:13.831Z,85.70
2018-08-24T09:49:22.281Z,85.30
2018-08-24T09:54:25.309Z,84.90
2018-08-24T09:59:28.363Z,84.70
2018-08-24T10:04:36.854Z,85.50
2018-08-24T10:09:39.973Z,84.90
2018-08-24T10:14:43.022Z,85.10
2018-08-24T10:19:46.034Z,81.40
2018-08-24T10:24:49.066Z,80.90
2018-08-24T10:29:52.162Z,79.80
2018-08-24T10:34:55.103Z,76.60
2018-08-24T10:39:58.117Z,76.00
2018-08-24T10:45:01.131Z,73.50
2018-08-24T10:50:04.180Z,71.60
2018-08-24T10:55:07.351Z,66.60
2018-08-24T11:00:10.407Z,70.80
2018-08-24T11:05:13.445Z,71.60
2018-08-24T11:10:16.458Z,72.50
2018-08-24T11:15:19.479Z,72.40
2018-08-24T11:20:22.526Z,74.40
2018-08-24T11:25:25.600Z,76.00
2018-08-24T11:30:28.628Z,76.30
2018-08-24T11:35:31.661Z,77.10
2018-08-24T11:40:34.921Z,79.00
2018-08-24T11:45:37.966Z,78.30
2018-08-24T11:50:41.006Z,78.80
2018-08-24T11:55:44.070Z,79.70
2018-08-24T12:00:47.119Z,78.80
2018-08-24T12:05:50.251Z,80.80
2018-08-24T12:10:53.289Z,81.70
2018-08-24T12:15:56.314Z,82.80
2018-08-24T12:20:59.366Z,83.40
2018-08-24T12:26:02.926Z,82.90
2018-08-24T12:31:05.983Z,81.40
2018-08-24T12:36:12.278Z,81.30
2018-08-24T12:41:15.335Z,81.70
2018-08-24T12:46:18.324Z,81.00
2018-08-24T12:51:21.759Z,79.30
2018-08-24T12:56:24.997Z,79.70
2018-08-24T13:01:28.020Z,77.90
2018-08-24T13:06:31.059Z,77.00
2018-08-24T13:11:34.070Z,78.10
2018-08-24T13:16:37.082Z,76.20
2018-08-24T13:21:40.162Z,76.30
2018-08-24T13:26:43.179Z,75.60
2018-08-24T13:31:46.182Z,74.00
2018-08-24T13:36:49.223Z,74.50
2018-08-24T13:41:52.339Z,74.10
2018-08-24T13:46:55.355Z,75.40
2018-08-24T13:52:10.475Z,73.30
2018-08-24T13:57:13.558Z,72.60
2018-08-24T14:02:16.585Z,72.40
2018-08-24T14:07:19.610Z,73.20
2018-08-24T14:12:22.626Z,71.90
2018-08-24T14:17:25.642Z,70.70
2018-08-24T14:22:28.677Z,69.30
2018-08-24T14:27:32.039Z,66.40
2018-08-24T14:32:35.915Z,67.80
2018-08-24T14:37:39.315Z,65.40
2018-08-24T14:42:42.349Z,62.80
2018-08-24T14:47:45.383Z,62.80
2018-08-24T14:52:48.425Z,63.20
2018-08-24T14:57:51.483Z,62.10
2018-08-24T15:02:54.515Z,62.70
2018-08-24T15:07:57.549Z,62.10
2018-08-24T15:13:00.586Z,61.90
2018-08-24T15:18:03.612Z,61.50
2018-08-24T15:23:06.739Z,60.40
2018-08-24T15:28:09.666Z,59.60
2018-08-24T15:33:12.701Z,61.00
2018-08-24T15:38:15.699Z,61.70
2018-08-24T15:43:18.803Z,60.50
2018-08-24T15:48:21.831Z,61.00
2018-08-24T15:53:24.849Z,60.40
2018-08-24T15:58:27.849Z,61.90
2018-08-24T16:03:30.878Z,59.50
2018-08-24T16:08:33.906Z,58.60
2018-08-24T16:13:36.925Z,60.20
2018-08-24T16:18:39.978Z,59.90
2018-08-24T16:23:43.023Z,60.00
2018-08-24T16:28:46.039Z,62.20
2018-08-24T16:33:49.969Z,62.00
2018-08-24T16:38:53.000Z,60.50
2018-08-24T16:43:55.997Z,60.70
2018-08-24T16:48:59.040Z,60.70
2018-08-24T16:54:02.045Z,60.50
2018-08-24T16:59:05.050Z,60.80
2018-08-24T17:04:08.088Z,60.70
2018-08-24T17:09:12.317Z,60.60
2018-08-24T17:14:15.354Z,60.50
2018-08-24T17:19:18.358Z,61.20
2018-08-24T17:24:21.386Z,61.00
2018-08-24T17:29:24.425Z,61.80
2018-08-24T17:34:27.449Z,60.20
2018-08-24T17:39:30.458Z,60.80
2018-08-24T17:44:33.478Z,62.00
2018-08-24T17:49:36.499Z,61.60
2018-08-24T17:54:39.498Z,61.60
2018-08-24T17:59:42.522Z,62.30
2018-08-24T18:04:45.599Z,63.10
2018-08-24T18:09:48.601Z,62.90
2018-08-24T18:14:51.691Z,63.80
2018-08-24T18:19:56.692Z,63.90
2018-08-24T18:24:59.702Z,63.80
2018-08-24T18:30:02.749Z,64.00
2018-08-24T18:35:05.835Z,64.50
2018-08-24T18:40:10.894Z,64.70
2018-08-24T18:45:13.929Z,64.90
2018-08-24T18:50:16.995Z,64.80
2018-08-24T18:55:20.052Z,65.00
2018-08-24T19:00:23.135Z,64.40
2018-08-24T19:05:26.283Z,64.30
2018-08-24T19:10:31.098Z,64.80
2018-08-24T19:15:34.254Z,64.80
2018-08-24T19:20:43.892Z,64.90
2018-08-24T19:25:46.883Z,65.30
2018-08-24T19:30:50.018Z,65.20
2018-08-24T19:35:53.083Z,65.50
2018-08-24T19:43:06.273Z,65.90
2018-08-24T19:48:15.119Z,65.90
2018-08-24T19:53:24.303Z,66.40
2018-08-24T19:58:32.865Z,67.40
2018-08-24T20:31:14.100Z,70.40
2018-08-24T20:53:11.346Z,72.00
2018-08-24T21:03:43.135Z,71.60
2018-08-24T21:14:13.947Z,72.00
2018-08-24T21:30:36.617Z,73.20
2018-08-24T21:35:39.677Z,72.90
2018-08-24T22:09:17.704Z,72.70
2018-08-24T22:19:58.334Z,71.50
2018-08-24T22:25:02.303Z,71.30
2018-08-24T22:35:43.101Z,70.10
2018-08-24T22:40:47.055Z,70.50
2018-08-24T22:45:54.945Z,70.00
2018-08-24T22:51:04.003Z,70.10
